createdAt,value
2022-11-22T00:01:15.272Z,1.26
2022-11-22T00:03:44.538Z,1.22
2022-11-22T00:06:12.757Z,1.15
2022-11-22T00:08:40.633Z,1.13
2022-11-22T00:11:08.546Z,1.12
2022-11-22T00:13:36.417Z,1.10
2022-11-22T00:16:05.551Z,1.11
2022-11-22T00:18:33.776Z,1.07
2022-11-22T00:21:07.913Z,1.05
2022-11-22T00:23:36.110Z,1.02
2022-11-22T00:26:04.394Z,1.04
2022-11-22T00:28:32.291Z,1.02
2022-11-22T00:31:00.483Z,0.99
2022-11-22T00:33:28.410Z,0.94
2022-11-22T00:35:56.526Z,0.92
2022-11-22T00:38:25.982Z,0.92
2022-11-22T00:40:53.841Z,0.89
2022-11-22T00:43:21.815Z,0.90
2022-11-22T00:45:49.881Z,0.92
2022-11-22T00:48:17.804Z,0.84
2022-11-22T00:50:46.100Z,0.75
2022-11-22T00:53:13.931Z,0.73
2022-11-22T00:55:43.562Z,0.81
2022-11-22T00:58:11.496Z,0.82
2022-11-22T01:00:39.382Z,0.79
2022-11-22T01:03:07.997Z,0.79
2022-11-22T01:05:36.404Z,0.79
2022-11-22T01:08:04.622Z,0.78
2022-11-22T01:10:32.696Z,0.80
2022-11-22T01:13:02.170Z,0.82
2022-11-22T01:15:30.293Z,0.82
2022-11-22T01:17:58.267Z,0.85
2022-11-22T01:20:27.053Z,0.82
2022-11-22T01:22:55.057Z,0.74
2022-11-22T01:25:22.922Z,0.60
2022-11-22T01:27:51.116Z,0.55
2022-11-22T01:30:21.020Z,0.51
2022-11-22T01:32:49.147Z,0.48
2022-11-22T01:35:17.401Z,0.40
2022-11-22T01:37:45.292Z,0.36
2022-11-22T01:40:13.712Z,0.34
2022-11-22T01:42:45.237Z,0.30
2022-11-22T01:45:42.334Z,0.19
2022-11-22T01:48:21.442Z,0.15
2022-11-22T01:50:53.689Z,0.10
2022-11-22T01:53:26.738Z,0.05
2022-11-22T01:55:55.709Z,0.12
2022-11-22T01:58:25.376Z,0.06
2022-11-22T02:00:55.703Z,0.00
2022-11-22T02:03:26.938Z,0.00
2022-11-22T02:05:56.050Z,0.08
2022-11-22T02:08:31.194Z,0.13
2022-11-22T02:11:02.880Z,0.13
2022-11-22T02:13:34.939Z,0.10
2022-11-22T02:16:04.962Z,-0.01
2022-11-22T02:18:35.489Z,-0.01
2022-11-22T02:21:04.137Z,0.08
2022-11-22T02:23:44.471Z,0.07
2022-11-22T02:26:14.627Z,0.10
2022-11-22T02:28:42.789Z,0.09
2022-11-22T02:31:10.753Z,0.14
2022-11-22T02:33:38.970Z,0.22
2022-11-22T02:36:07.145Z,0.33
2022-11-22T02:38:36.654Z,0.38
2022-11-22T02:41:08.443Z,0.43
2022-11-22T02:43:40.553Z,0.49
2022-11-22T02:46:10.753Z,0.50
2022-11-22T02:48:42.866Z,0.47
2022-11-22T02:51:11.456Z,0.49
2022-11-22T02:53:39.713Z,0.48
2022-11-22T02:56:07.806Z,0.50
2022-11-22T02:58:37.616Z,0.50
2022-11-22T03:01:05.916Z,0.49
2022-11-22T03:03:34.940Z,0.52
2022-11-22T03:06:03.483Z,0.47
2022-11-22T03:08:31.977Z,0.37
2022-11-22T03:11:00.353Z,0.20
2022-11-22T03:13:28.620Z,0.10
2022-11-22T03:15:57.867Z,0.07
2022-11-22T03:18:27.357Z,0.04
2022-11-22T03:20:55.314Z,0.00
2022-11-22T03:23:23.375Z,-0.03
2022-11-22T03:25:51.318Z,-0.03
2022-11-22T03:28:19.294Z,-0.05
2022-11-22T03:30:47.156Z,-0.11
2022-11-22T03:33:16.792Z,-0.19
2022-11-22T03:35:45.057Z,-0.21
2022-11-22T03:38:12.871Z,-0.18
2022-11-22T03:40:40.861Z,-0.26
2022-11-22T03:43:08.856Z,-0.28
2022-11-22T03:45:36.685Z,-0.31
2022-11-22T03:48:04.702Z,-0.39
2022-11-22T03:50:34.339Z,-0.53
2022-11-22T03:53:02.361Z,-0.55
2022-11-22T03:55:30.409Z,-0.60
2022-11-22T03:57:58.480Z,-0.53
2022-11-22T04:00:26.452Z,-0.48
2022-11-22T04:02:54.499Z,-0.45
2022-11-22T04:05:22.705Z,-0.48
2022-11-22T04:07:56.147Z,-0.46
2022-11-22T04:10:24.290Z,-0.44
2022-11-22T04:12:53.194Z,-0.46
2022-11-22T04:15:20.340Z,-0.46
2022-11-22T04:17:48.553Z,-0.51
2022-11-22T04:20:38.881Z,-0.60
2022-11-22T04:23:09.993Z,-0.71
2022-11-22T04:25:38.892Z,-0.70
2022-11-22T04:28:08.303Z,-0.68
2022-11-22T04:30:54.529Z,-0.65
2022-11-22T04:33:23.151Z,-0.68
2022-11-22T04:35:51.866Z,-0.64
2022-11-22T04:38:21.298Z,-0.86
2022-11-22T04:40:49.925Z,-0.91
2022-11-22T04:43:39.305Z,-0.91
2022-11-22T04:46:07.183Z,-0.89
2022-11-22T04:48:35.537Z,-0.87
2022-11-22T04:51:21.696Z,-0.88
2022-11-22T04:53:52.239Z,-1.02
2022-11-22T04:56:21.193Z,-1.10
2022-11-22T04:58:51.436Z,-1.05
2022-11-22T05:01:19.745Z,-0.85
2022-11-22T05:03:50.853Z,-0.86
2022-11-22T05:06:18.730Z,-0.90
2022-11-22T05:08:46.716Z,-0.87
2022-11-22T05:11:16.137Z,-0.81
2022-11-22T05:13:44.258Z,-0.78
2022-11-22T05:16:13.840Z,-0.73
2022-11-22T05:18:42.315Z,-0.71
2022-11-22T05:21:12.027Z,-0.80
2022-11-22T05:23:57.264Z,-0.84
2022-11-22T05:26:29.009Z,-0.81
2022-11-22T05:28:58.526Z,-0.72
2022-11-22T05:31:28.350Z,-0.63
2022-11-22T05:33:58.698Z,-0.61
2022-11-22T05:36:26.815Z,-0.60
2022-11-22T05:38:55.898Z,-0.59
2022-11-22T05:41:26.772Z,-0.56
2022-11-22T05:43:57.610Z,-0.53
2022-11-22T05:46:27.576Z,-0.49
2022-11-22T05:48:59.599Z,-0.43
2022-11-22T05:51:34.108Z,-0.44
2022-11-22T05:54:03.309Z,-0.41
2022-11-22T05:56:33.042Z,-0.37
2022-11-22T05:59:01.053Z,-0.37
2022-11-22T06:01:29.154Z,-0.45
2022-11-22T06:03:57.088Z,-0.47
2022-11-22T06:06:25.078Z,-0.48
2022-11-22T06:08:53.201Z,-0.49
2022-11-22T06:11:23.045Z,-0.46
2022-11-22T06:13:54.341Z,-0.46
2022-11-22T06:16:22.867Z,-0.43
2022-11-22T06:18:54.903Z,-0.40
2022-11-22T06:21:24.338Z,-0.36
2022-11-22T06:23:54.493Z,-0.34
2022-11-22T06:26:22.718Z,-0.35
2022-11-22T06:28:52.198Z,-0.32
2022-11-22T06:31:22.191Z,-0.28
2022-11-22T06:33:51.206Z,-0.25
2022-11-22T06:36:20.743Z,-0.22
2022-11-22T06:38:49.087Z,-0.23
2022-11-22T06:41:19.706Z,-0.19
2022-11-22T06:43:49.876Z,-0.15
2022-11-22T06:48:33.009Z,-0.23
2022-11-22T06:51:01.460Z,-0.20
2022-11-22T06:53:46.363Z,-0.21
2022-11-22T06:56:17.093Z,-0.19
2022-11-22T06:58:45.784Z,-0.17
2022-11-22T07:01:16.183Z,-0.13
2022-11-22T07:03:46.207Z,-0.13
2022-11-22T07:06:15.363Z,-0.13
2022-11-22T07:08:43.543Z,-0.16
2022-11-22T07:11:13.641Z,-0.16
2022-11-22T07:13:41.495Z,-0.23
2022-11-22T07:16:12.466Z,-0.19
2022-11-22T07:18:40.627Z,-0.12
2022-11-22T07:21:13.470Z,-0.06
2022-11-22T07:23:42.921Z,-0.04
2022-11-22T07:26:11.504Z,-0.01
2022-11-22T07:28:39.358Z,0.01
2022-11-22T07:31:08.702Z,0.06
2022-11-22T07:33:36.910Z,0.07
2022-11-22T07:36:06.676Z,0.06
2022-11-22T07:38:36.511Z,0.08
2022-11-22T07:41:05.019Z,0.07
2022-11-22T07:43:33.312Z,0.09
2022-11-22T07:46:01.338Z,0.07
2022-11-22T07:48:29.282Z,0.05
2022-11-22T07:50:57.339Z,0.02
2022-11-22T07:53:25.249Z,0.03
2022-11-22T07:55:54.429Z,0.03
2022-11-22T07:58:22.321Z,0.01
2022-11-22T08:00:51.825Z,0.02
2022-11-22T08:03:24.036Z,0.05
2022-11-22T08:06:00.318Z,0.08
2022-11-22T08:08:28.390Z,0.10
2022-11-22T08:10:57.735Z,0.10
2022-11-22T08:13:25.646Z,0.11
2022-11-22T08:15:54.856Z,0.10
2022-11-22T08:18:23.576Z,0.08
2022-11-22T08:20:51.583Z,0.10
2022-11-22T08:23:19.378Z,0.10
2022-11-22T08:25:47.195Z,0.12
2022-11-22T08:28:16.373Z,0.10
2022-11-22T08:30:44.187Z,0.09
2022-11-22T08:33:12.036Z,0.06
2022-11-22T08:35:39.940Z,0.00
2022-11-22T08:38:07.804Z,-0.02
2022-11-22T08:40:40.888Z,-0.05
2022-11-22T08:43:09.186Z,-0.07
2022-11-22T08:45:39.169Z,-0.08
2022-11-22T08:48:07.532Z,-0.12
2022-11-22T08:50:35.382Z,-0.15
2022-11-22T08:53:03.205Z,-0.16
2022-11-22T08:55:31.041Z,-0.24
2022-11-22T08:58:00.240Z,-0.27
2022-11-22T09:00:33.168Z,-0.31
2022-11-22T09:03:02.843Z,-0.32
2022-11-22T09:05:32.600Z,-0.36
2022-11-22T09:10:49.358Z,-0.34
2022-11-22T09:13:17.176Z,-0.32
2022-11-22T09:15:45.047Z,-0.31
2022-11-22T09:18:14.234Z,-0.30
2022-11-22T09:20:42.360Z,-0.26
2022-11-22T09:23:10.232Z,-0.26
2022-11-22T09:25:38.066Z,-0.24
2022-11-22T09:28:05.898Z,-0.22
2022-11-22T09:30:33.703Z,-0.16
2022-11-22T09:33:01.511Z,-0.14
2022-11-22T09:35:30.861Z,-0.09
2022-11-22T09:37:59.259Z,-0.04
2022-11-22T09:40:27.110Z,-0.04
2022-11-22T09:43:09.240Z,-0.05
2022-11-22T09:45:45.658Z,-0.06
2022-11-22T09:48:29.492Z,-0.05
2022-11-22T09:51:07.460Z,-0.01
2022-11-22T09:53:41.512Z,-0.03
2022-11-22T09:56:13.658Z,0.01
2022-11-22T09:58:47.632Z,0.03
2022-11-22T10:01:21.348Z,0.09
2022-11-22T10:03:54.858Z,0.14
2022-11-22T10:06:28.538Z,0.21
2022-11-22T10:09:07.832Z,0.28
2022-11-22T10:11:41.502Z,0.34
2022-11-22T10:14:28.904Z,0.43
2022-11-22T10:17:02.392Z,0.49
2022-11-22T10:19:35.986Z,0.54
2022-11-22T10:22:12.454Z,0.55
2022-11-22T10:24:40.310Z,0.57
2022-11-22T10:27:14.573Z,0.60
2022-11-22T10:29:46.029Z,0.65
2022-11-22T10:32:21.571Z,0.68
2022-11-22T10:35:13.508Z,0.72
2022-11-22T10:37:52.579Z,0.76
2022-11-22T10:40:27.621Z,0.75
2022-11-22T10:43:21.811Z,0.80
2022-11-22T10:45:54.693Z,0.86
2022-11-22T10:48:29.867Z,0.92
2022-11-22T10:51:06.336Z,0.96
2022-11-22T10:53:49.588Z,1.01
2022-11-22T10:56:24.713Z,1.06
2022-11-22T10:59:12.533Z,1.12
2022-11-22T11:01:48.058Z,1.14
2022-11-22T11:04:17.815Z,1.17
2022-11-22T11:12:41.327Z,1.12
2022-11-22T11:15:18.621Z,1.13
2022-11-22T11:17:51.302Z,1.18
2022-11-22T11:20:24.603Z,1.22
2022-11-22T11:23:13.586Z,1.25
2022-11-22T11:25:43.457Z,1.26
2022-11-22T11:28:17.652Z,1.29
2022-11-22T11:30:48.282Z,1.29
2022-11-22T11:33:20.611Z,1.31
2022-11-22T11:35:48.967Z,1.31
2022-11-22T11:38:28.442Z,1.31
2022-11-22T11:40:57.936Z,1.32
2022-11-22T11:43:28.845Z,1.31
2022-11-22T11:45:56.684Z,1.34
2022-11-22T11:48:29.462Z,1.35
2022-11-22T11:51:16.238Z,1.35
2022-11-22T11:53:52.007Z,1.36
2022-11-22T11:56:28.345Z,1.36
2022-11-22T11:58:59.247Z,1.36
2022-11-22T12:01:28.077Z,1.36
2022-11-22T12:03:58.545Z,1.36
2022-11-22T12:06:30.496Z,1.34
2022-11-22T12:08:58.695Z,1.34
2022-11-22T12:11:39.598Z,1.37
2022-11-22T12:14:20.057Z,1.39
2022-11-22T12:17:06.814Z,1.43
2022-11-22T12:19:47.029Z,1.46
2022-11-22T12:22:35.524Z,1.42
2022-11-22T12:25:34.752Z,1.47
2022-11-22T12:28:13.961Z,1.51
2022-11-22T12:30:44.281Z,1.52
2022-11-22T12:33:20.353Z,1.56
2022-11-22T12:35:50.894Z,1.56
2022-11-22T12:38:23.935Z,1.56
2022-11-22T12:40:55.730Z,1.58
2022-11-22T12:43:30.813Z,1.58
2022-11-22T12:46:02.082Z,1.52
2022-11-22T12:48:38.222Z,1.50
2022-11-22T12:51:12.313Z,1.50
2022-11-22T12:53:44.461Z,1.50
2022-11-22T12:56:22.598Z,1.48
2022-11-22T12:58:58.773Z,1.47
2022-11-22T13:01:31.571Z,1.48
2022-11-22T13:04:04.984Z,1.50
2022-11-22T13:06:39.861Z,1.51
2022-11-22T13:09:13.137Z,1.53
2022-11-22T13:11:48.621Z,1.57
2022-11-22T13:14:22.192Z,1.59
2022-11-22T13:16:51.300Z,1.60
2022-11-22T13:19:23.369Z,1.59
2022-11-22T13:22:09.047Z,1.63
2022-11-22T13:24:48.082Z,1.63
2022-11-22T13:27:21.669Z,1.67
2022-11-22T13:29:55.621Z,1.71
2022-11-22T13:32:25.453Z,1.72
2022-11-22T13:35:25.090Z,1.74
2022-11-22T13:37:55.785Z,1.74
2022-11-22T13:40:28.531Z,1.75
2022-11-22T13:43:48.104Z,1.74
2022-11-22T13:47:04.818Z,1.73
2022-11-22T13:49:46.857Z,1.71
2022-11-22T13:52:44.881Z,1.72
2022-11-22T13:55:41.840Z,1.70
2022-11-22T13:58:51.199Z,1.69
2022-11-22T14:02:07.537Z,1.66
2022-11-22T14:04:44.785Z,1.69
2022-11-22T14:07:35.859Z,1.67
2022-11-22T14:10:06.065Z,1.65
2022-11-22T14:12:49.617Z,1.58
2022-11-22T14:15:30.041Z,1.55
2022-11-22T14:18:21.800Z,1.51
2022-11-22T14:21:02.781Z,1.43
2022-11-22T14:23:41.913Z,1.38
2022-11-22T14:26:20.818Z,1.32
2022-11-22T14:29:38.278Z,1.23
2022-11-22T14:32:15.965Z,1.18
2022-11-22T14:35:17.098Z,1.11
2022-11-22T14:37:48.845Z,1.10
2022-11-22T14:40:35.351Z,1.08
2022-11-22T14:43:07.185Z,1.01
2022-11-22T14:45:44.338Z,0.97
2022-11-22T14:48:19.233Z,0.95
2022-11-22T14:50:51.664Z,0.95
2022-11-22T14:53:31.302Z,0.93
2022-11-22T14:56:05.641Z,0.88
2022-11-22T14:58:39.299Z,0.75
2022-11-22T15:01:35.597Z,0.66
2022-11-22T15:09:13.963Z,0.42
2022-11-22T15:09:15.083Z,0.60
2022-11-22T15:10:45.390Z,0.38
2022-11-22T15:13:43.989Z,0.30
2022-11-22T15:57:26.348Z,-0.51
2022-11-22T15:59:55.828Z,-0.47
2022-11-22T16:02:27.755Z,-0.43
2022-11-22T16:06:09.245Z,-0.39
2022-11-22T16:07:49.043Z,-0.39
2022-11-22T16:10:21.629Z,-0.36
2022-11-22T16:12:49.698Z,-0.38
2022-11-22T16:15:25.134Z,-0.36
2022-11-22T16:17:59.554Z,-0.34
2022-11-22T16:20:34.050Z,-0.32
2022-11-22T16:23:26.189Z,-0.30
2022-11-22T16:25:57.573Z,-0.26
2022-11-22T16:28:32.533Z,-0.18
2022-11-22T16:31:03.343Z,-0.13
2022-11-22T16:33:33.406Z,-0.07
2022-11-22T16:36:01.713Z,0.01
2022-11-22T16:38:30.937Z,0.15
2022-11-22T16:41:00.206Z,0.21
2022-11-22T16:43:33.988Z,0.30
2022-11-22T16:46:01.931Z,0.33
2022-11-22T16:48:33.297Z,0.43
2022-11-22T16:51:06.153Z,0.53
2022-11-22T16:53:43.178Z,0.58
2022-11-22T16:56:18.126Z,0.66
2022-11-22T16:58:46.175Z,0.74
2022-11-22T17:01:16.265Z,0.80
2022-11-22T17:03:45.074Z,0.84
2022-11-22T17:06:18.742Z,0.86
2022-11-22T17:08:47.757Z,0.90
2022-11-22T17:11:17.956Z,0.96
2022-11-22T17:13:46.495Z,0.97
2022-11-22T17:16:15.233Z,1.00
2022-11-22T17:18:43.111Z,1.04
2022-11-22T17:21:19.009Z,1.08
2022-11-22T17:23:47.114Z,1.19
2022-11-22T17:26:14.938Z,1.25
2022-11-22T17:28:42.842Z,1.31
2022-11-22T17:31:13.891Z,1.37
2022-11-22T17:33:41.909Z,1.38
2022-11-22T17:36:22.102Z,1.41
2022-11-22T17:38:52.798Z,1.40
2022-11-22T17:41:20.757Z,1.40
2022-11-22T17:43:48.888Z,1.41
2022-11-22T17:46:16.735Z,1.43
2022-11-22T17:48:44.754Z,1.43
2022-11-22T17:51:13.984Z,1.45
2022-11-22T17:53:43.466Z,1.46
2022-11-22T17:56:12.092Z,1.47
2022-11-22T17:58:40.445Z,1.47
2022-11-22T18:01:10.185Z,1.48
2022-11-22T18:03:38.109Z,1.49
2022-11-22T18:06:06.982Z,1.49
2022-11-22T18:08:35.525Z,1.51
2022-11-22T18:11:05.692Z,1.53
2022-11-22T18:13:34.075Z,1.52
2022-11-22T18:16:04.006Z,1.53
2022-11-22T18:21:20.136Z,1.56
2022-11-22T18:23:48.391Z,1.57
2022-11-22T18:34:42.625Z,1.59
2022-11-22T18:37:10.557Z,1.62
2022-11-22T18:39:40.000Z,1.62
2022-11-22T18:42:13.002Z,1.61
2022-11-22T18:44:41.074Z,1.59
2022-11-22T18:47:09.806Z,1.57
2022-11-22T18:49:37.878Z,1.55
2022-11-22T18:52:06.396Z,1.56
2022-11-22T18:54:34.485Z,1.57
2022-11-22T18:57:02.618Z,1.57
2022-11-22T18:59:32.320Z,1.56
2022-11-22T19:02:00.463Z,1.54
2022-11-22T19:04:28.748Z,1.53
2022-11-22T19:06:57.010Z,1.57
2022-11-22T19:09:24.904Z,1.58
2022-11-22T19:11:58.341Z,1.57
2022-11-22T19:14:29.003Z,1.56
2022-11-22T19:16:58.720Z,1.54
2022-11-22T19:19:26.546Z,1.53
2022-11-22T19:21:54.371Z,1.52
2022-11-22T19:24:22.218Z,1.53
2022-11-22T19:26:50.266Z,1.54
2022-11-22T19:29:18.435Z,1.55
2022-11-22T19:31:46.408Z,1.59
2022-11-22T19:34:15.709Z,1.62
2022-11-22T19:36:43.859Z,1.64
2022-11-22T19:39:13.401Z,1.68
2022-11-22T19:41:42.555Z,1.67
2022-11-22T19:44:10.945Z,1.71
2022-11-22T19:46:41.527Z,1.71
2022-11-22T19:49:10.410Z,1.73
2022-11-22T19:51:39.824Z,1.74
2022-11-22T19:54:08.230Z,1.74
2022-11-22T19:56:37.481Z,1.74
2022-11-22T19:59:09.832Z,1.77
2022-11-22T20:01:37.917Z,1.76
2022-11-22T20:04:07.418Z,1.78
2022-11-22T20:06:36.613Z,1.77
2022-11-22T20:09:10.368Z,1.78
2022-11-22T20:11:39.695Z,1.80
2022-11-22T20:14:09.381Z,1.80
2022-11-22T20:16:39.221Z,1.81
2022-11-22T20:19:09.616Z,1.82
2022-11-22T20:21:38.398Z,1.84
2022-11-22T20:24:08.393Z,1.84
2022-11-22T20:26:36.553Z,1.84
2022-11-22T20:29:08.017Z,1.82
2022-11-22T20:31:37.336Z,1.82
2022-11-22T20:34:05.351Z,1.83
2022-11-22T20:36:35.041Z,1.82
2022-11-22T20:39:08.619Z,1.81
2022-11-22T20:41:40.025Z,1.79
2022-11-22T20:44:08.316Z,1.77
2022-11-22T20:46:38.265Z,1.78
2022-11-22T20:49:06.096Z,1.79
2022-11-22T20:51:35.916Z,1.81
2022-11-22T20:54:03.966Z,1.84
2022-11-22T20:56:31.812Z,1.85
2022-11-22T20:59:01.160Z,1.87
2022-11-22T21:01:32.263Z,1.87
2022-11-22T21:04:00.150Z,1.90
2022-11-22T21:06:28.877Z,1.90
2022-11-22T21:08:56.763Z,1.86
2022-11-22T21:11:26.454Z,1.91
2022-11-22T21:13:56.111Z,1.92
2022-11-22T21:16:28.049Z,1.94
2022-11-22T21:18:57.496Z,1.92
2022-11-22T21:21:26.653Z,1.93
2022-11-22T21:23:56.569Z,1.93
2022-11-22T21:26:26.064Z,1.93
2022-11-22T21:28:54.081Z,1.93
2022-11-22T21:31:23.096Z,1.93
2022-11-22T21:33:53.162Z,1.95
2022-11-22T21:36:21.880Z,1.92
2022-11-22T21:38:49.902Z,1.93
2022-11-22T21:44:07.897Z,1.94
2022-11-22T21:46:35.860Z,1.94
2022-11-22T21:49:05.124Z,1.95
2022-11-22T21:51:33.098Z,1.95
2022-11-22T21:54:02.085Z,1.97
2022-11-22T21:56:30.350Z,2.00
2022-11-22T21:58:58.275Z,2.00
2022-11-22T22:01:26.797Z,2.01
2022-11-22T22:03:54.847Z,2.01
2022-11-22T22:06:25.123Z,2.04
2022-11-22T22:08:53.015Z,2.04
2022-11-22T22:11:21.008Z,2.03
2022-11-22T22:13:48.892Z,2.02
2022-11-22T22:16:19.223Z,2.02
2022-11-22T22:18:47.569Z,2.02
2022-11-22T22:21:16.456Z,2.01
2022-11-22T22:23:46.541Z,2.02
2022-11-22T22:26:15.986Z,2.04
2022-11-22T22:28:45.195Z,2.06
2022-11-22T22:31:14.562Z,2.07
2022-11-22T22:33:42.989Z,2.05
2022-11-22T22:36:11.782Z,2.05
2022-11-22T22:38:39.798Z,2.04
2022-11-22T22:41:11.945Z,2.08
2022-11-22T22:43:41.830Z,2.03
2022-11-22T22:46:13.570Z,2.05
2022-11-22T22:48:41.912Z,2.03
2022-11-22T22:51:12.673Z,2.02
2022-11-22T22:53:40.545Z,2.01
2022-11-22T22:56:11.104Z,2.05
2022-11-22T22:58:39.129Z,2.07
2022-11-22T23:01:09.026Z,2.09
2022-11-22T23:03:38.363Z,2.11
2022-11-22T23:06:08.148Z,2.11
2022-11-22T23:08:36.369Z,2.13
2022-11-22T23:11:06.535Z,2.13
2022-11-22T23:13:36.168Z,2.10
2022-11-22T23:16:04.239Z,2.14
2022-11-22T23:18:32.315Z,2.16
2022-11-22T23:21:00.720Z,2.21
2022-11-22T23:23:29.029Z,2.20
2022-11-22T23:25:57.294Z,2.26
2022-11-22T23:28:25.117Z,2.26
2022-11-22T23:30:54.464Z,2.28
2022-11-22T23:33:22.275Z,2.26
2022-11-22T23:35:50.134Z,2.26
2022-11-22T23:38:17.960Z,2.26
2022-11-22T23:40:45.761Z,2.26
2022-11-22T23:43:13.564Z,2.23
2022-11-22T23:45:46.466Z,2.21
2022-11-22T23:48:15.977Z,2.19
2022-11-22T23:50:43.962Z,2.17
2022-11-22T23:53:12.014Z,2.17
2022-11-22T23:55:39.916Z,2.13
2022-11-22T23:58:07.766Z,2.15
